Kaiyohmaru — JJ3357 — position and weather

sailwx.info

Track history (hours):
 
Tides and Currents Weather Stations Pressure Air Temp Water Temp Dewpoint Dewpoint Depression Visibility Wind Speed Wind Dir Waves Ship Positions

Kaiyohmaru

Last reported at 2018-Feb-15 23:17 UTC. Time now 2018-Feb-18 18:18 UTC.
Position N 35°38' E 140°01'.

Length 28 m.

Type: Tug. MMSI: 431501708.

Date/timePositionNaut miles runAvg speedWind from/ knotsBaromVisibWave heightAir tempDewpointWater temp
2018-Feb-15 23:17N 35°38' E 140°01'  
2018-Feb-08 00:24N 35°36' E 139°59'2 0.1
2018-Feb-06 23:37N 35°38' E 140°01'0 0.5
2018-Feb-06 23:21N 35°38' E 140°01'13 0.7
2018-Feb-06 06:02N 35°29' E 139°49'110.1
2018-Feb-06 05:58N 35°28' E 139°49'510.1
2018-Feb-06 05:28N 35°23' E 139°49'3 6.8
2018-Feb-06 04:59N 35°20' E 139°50'0 0.0
2018-Feb-06 04:20N 35°20' E 139°50'1 1.8
2018-Feb-06 04:00N 35°20' E 139°49'4 7.7
2018-Feb-06 03:30N 35°24' E 139°50'4 8.3
2018-Feb-06 03:00N 35°27' E 139°53'11 3.0
2018-Feb-05 23:29N 35°37' E 139°60'  
Track history (hours):
 
Tides and Currents Weather Stations Pressure Air Temp Water Temp Dewpoint Dewpoint Depression Visibility Wind Speed Wind Dir Waves Ship Positions

Kaiyohmaru

Last reported at 2018-Feb-15 23:17 UTC. Time now 2018-Feb-18 18:18 UTC.
Position N 35°38' E 140°01'.

Length 28 m.

Type: Tug. MMSI: 431501708.

Date/timePositionNaut miles runAvg speedWind from/ knotsBaromVisibWave heightAir tempDewpointWater temp
2018-Feb-15 23:17N 35°38' E 140°01'  
2018-Feb-08 00:24N 35°36' E 139°59'2 0.1
2018-Feb-06 23:37N 35°38' E 140°01'0 0.5
2018-Feb-06 23:21N 35°38' E 140°01'13 0.7
2018-Feb-06 06:02N 35°29' E 139°49'110.1
2018-Feb-06 05:58N 35°28' E 139°49'510.1
2018-Feb-06 05:28N 35°23' E 139°49'3 6.8
2018-Feb-06 04:59N 35°20' E 139°50'0 0.0
2018-Feb-06 04:20N 35°20' E 139°50'1 1.8
2018-Feb-06 04:00N 35°20' E 139°49'4 7.7
2018-Feb-06 03:30N 35°24' E 139°50'4 8.3
2018-Feb-06 03:00N 35°27' E 139°53'11 3.0
2018-Feb-05 23:29N 35°37' E 139°60'  

Dump ship's entire track history